This is the latest recevied weather packets stored in our database for station/object LZ0VRC-10. If no packets are shown the sender has not sent any weather packets the latest 10 day(s).
| Time | Temp. | Humidity | Pressure | Rain* | Wind** | Luminosity | Snow |
|---|---|---|---|---|---|---|---|
| 1777807205 | 11.67° C | 46% | 1023.5 hPa | - | - | - | - |
| 1777806305 | 11.67° C | 41% | 1023.5 hPa | - | - | - | - |
| 1777805410 | 12.22° C | 42% | 1023.5 hPa | - | - | - | - |
| 1777805405 | 12.22° C | 42% | 1023.5 hPa | - | - | - | - |
| 1777804510 | 17.22° C | 32% | 1023.6 hPa | - | - | - | - |
| 1777804505 | 17.22° C | 32% | 1023.6 hPa | - | - | - | - |
| 1777803605 | 14.44° C | 37% | 1023.7 hPa | - | - | - | - |
| 1777802710 | 15° C | 35% | 1023.9 hPa | - | - | - | - |
| 1777802705 | 15° C | 35% | 1023.9 hPa | - | - | - | - |
| 1777801810 | 15° C | 38% | 1023.9 hPa | - | - | - | - |
| 1777801805 | 15° C | 38% | 1023.9 hPa | - | - | - | - |
| 1777800910 | 10.56° C | 47% | 1024.1 hPa | - | - | - | - |
| 1777800905 | 10.56° C | 47% | 1024.1 hPa | - | - | - | - |
| 1777800005 | 11.67° C | 48% | 1024.1 hPa | - | - | - | - |
| 1777799110 | 12.22° C | 57% | 1024.1 hPa | - | - | - | - |
| 1777799105 | 12.22° C | 57% | 1024.1 hPa | - | - | - | - |
| 1777798210 | 11.11° C | 62% | 1024.1 hPa | - | - | - | - |
| 1777798205 | 11.11° C | 62% | 1024.1 hPa | - | - | - | - |
| 1777797305 | 11.67° C | 61% | 1024.1 hPa | - | - | - | - |
| 1777796410 | 13.33° C | 57% | 1024.1 hPa | - | - | - | - |
| 1777796405 | 13.33° C | 57% | 1024.1 hPa | - | - | - | - |
| 1777795510 | 11.11° C | 68% | 1024.2 hPa | - | - | - | - |
| 1777795505 | 11.11° C | 68% | 1024.2 hPa | - | - | - | - |
| 1777794610 | 11.67° C | 69% | 1024.2 hPa | - | - | - | - |
| 1777794605 | 11.67° C | 69% | 1024.2 hPa | - | - | - | - |
* Rain since midnight (hover to see other rain measurements)
** Current wind speed in m/s (hover to see current wind gust speed)